Relevés horaires St-Hubert (Belgique)


Relevés horaires à St-Hubert - Dimanche 08 Juill. 2018
Heure UTC1 Température [°C] Vent [km/h] Hum. [%] Pres.4 [hPa] Visi. [Km] Nébu. [octa] Préc.5 [mm] Cond.
2m. Res. Ros. Dir.2 Vit. Moy. Raf.3
23:00 15.3 15.3 8.5 NNO 0.0 0.0 0.0 64 1024.2(0.2/3h) 45 0/8 -- --
22:00 16.5 16.5 9.6 NNO 0.0 0.0 0.0 64 1023.9(0.4/3h) 45 0/8 -- --
21:00 17.3 17.3 9.2 NNO 0.0 0.0 0.0 59 1023.7(0.3/3h) 45 0/8 -- --
20:00 18.2 18.2 9.1 NNO 0.0 0.0 0.0 55 1023.3(0.0/3h) 40 0/8 -- --
19:00 19.8 19.8 9.5 NNO 0.0 0.0 0.0 51 1022.8(-0.3/3h) 35 0/8 -- --
18:00 20.9 20.9 9.5 NNO 0.0 0.0 0.0 48 1022.5(-0.5/3h) 30 0/8 0/12h
--
17:00 21.3 21.3 8.8 NNO 0.0 0.0 0.0 45 1022.6(-0.4/3h) 30 0/8 -- --
16:00 21.5 21.5 9.4 NNO 0.0 0.0 0.0 46 1022.8(-0.4/3h) 28 0/8 -- --
15:00 21.4 21.4 9.5 NNO 0.0 0.0 0.0 47 1023(-0.4/3h) 35 0/8 -- --
14:00 21.5 21.5 10.7 NNO 0.0 0.0 0.0 50 1023(-0.6/3h) 26 0/8 -- --
13:00 20.9 20.9 9.9 NNO 0.0 0.0 0.0 49 1023.3(-0.6/3h) 30 0/8 -- --
12:00 20.5 20.5 10.1 NNO 0.0 0.0 0.0 51 1023.5(-0.2/3h) 30 0/8 0/6h
--
11:00 19.7 19.7 9.5 NNO 0.0 0.0 0.0 52 1024(0.2/3h) 40 0/8 -- --
10:00 18.9 18.9 8.5 NNO 0.0 0.0 0.0 51 1024.3(0.5/3h) 35 0/8 -- --
09:00 18.4 18.4 8.2 NNO 0.0 0.0 0.0 51 1024.3(0.4/3h) 30 0/8 -- --
08:00 17.2 17.2 7.0 NNO 0.0 0.0 0.0 51 1024.4(0.6/3h) 35 0/8 -- --
07:00 16.4 16.4 6.9 NNO 0.0 0.0 0.0 53 1024.4(0.6/3h) 40 0/8 -- --
06:00 15.5 15.5 7.1 NNO 0.0 0.0 0.0 57 1024.5(0.7/3h) 35 0/8 0/12h
--
05:00 14.6 14.6 3.9 NNO 0.0 0.0 0.0 49 1024.4(0.0/3h) 45 1/8 -- --
04:00 13.3 13.3 4.5 NNO 0.0 0.0 0.0 55 1024.5(0.1/3h) 45 0/8 -- --
03:00 12.9 12.9 8.9 NNO 0.0 0.0 0.0 77 1024.3(0.1/3h) 45 0/8 -- --
02:00 13.0 13.0 9.5 NNO 0.0 0.0 0.0 79 1024.7(-0.1/3h) 45 0/8 -- --
01:00 13.1 13.1 9.1 NNO 0.0 0.0 0.0 77 1024.6(-0.1/3h) 45 0/8 -- --
00:00 13.4 13.4 9.2 NNO 0.0 0.0 0.0 76 1024.3(-0.3/3h) 45 0/8 0/6h
0/24h
--

1 Coordinated Universal Time. Actuellement il est 13:00 locale et 11:00 UTC.

2 Le vent souffle depuis la direction indiquée vers la direction oposée.

3 Les rafales max. sont disponible 40 min après l'heure du relevé.

4 Pour les stations d'altitude (plus de 600m) le géopotentiel du niveau le plus proche de la pression obligatoire est indiqué.

5 Les stations disposant d'un diffuseur peuvent indiquer "trace". Cela signifie que des précipitations ont touchés le sol mais que la quantité est inférieure à 0.1 mm.

Récapitulatif de la journée
Température [°C] Vent [km/h] Ensoleillement4 [h] Precipitations totale5 [mm] Pression [Hpa]
Min1 Max.2 Moy.3 Max. Min Max.
12.2 21.9 0 0.0 0 h 0 min 0 1022.5 1024.7

1 Température minimale relevée entre 18:00 UTC la veille et 18:00 UTC le jour donné.

2 Température maximale relevée entre 06:00 UTC le jour donné et 06:00 UTC le lendemain.

3 Vent moyen de la journée basé sur les relevés horaires.

4 Ensoleillement en heures relevé entre 06:00 UTC la veille et 06:00 UTC le jour donné.

5 Précipitations totales tombées entre 06:00 UTC la jour donné et 06:00 UTC le lendemain.

Graphiques horaires